sensor_id;sensor_type;location;lat;lon;timestamp;P1;durP1;ratioP1;P2;durP2;ratioP2
75508;SDS011;64214;47.250;11.332;2023-03-14T00:00:07;5.22;;;2.78;;
75508;SDS011;64214;47.250;11.332;2023-03-14T00:00:21;4.20;;;2.75;;
75508;SDS011;64214;47.250;11.332;2023-03-14T00:00:32;4.63;;;2.88;;
75508;SDS011;64214;47.250;11.332;2023-03-14T00:00:44;4.50;;;2.80;;
75508;SDS011;64214;47.250;11.332;2023-03-14T00:00:55;4.05;;;2.83;;
75508;SDS011;64214;47.250;11.332;2023-03-14T00:01:10;3.60;;;2.80;;
75508;SDS011;64214;47.250;11.332;2023-03-14T00:01:25;4.18;;;3.10;;
75508;SDS011;64214;47.250;11.332;2023-03-14T00:01:36;4.55;;;3.05;;
75508;SDS011;64214;47.250;11.332;2023-03-14T00:01:47;4.60;;;2.83;;
75508;SDS011;64214;47.250;11.332;2023-03-14T00:01:59;4.28;;;2.85;;
75508;SDS011;64214;47.250;11.332;2023-03-14T00:02:10;4.70;;;3.03;;
75508;SDS011;64214;47.250;11.332;2023-03-14T00:02:21;4.97;;;2.92;;
75508;SDS011;64214;47.250;11.332;2023-03-14T00:02:32;4.63;;;2.90;;
75508;SDS011;64214;47.250;11.332;2023-03-14T00:02:43;4.05;;;2.88;;
75508;SDS011;64214;47.250;11.332;2023-03-14T00:02:54;3.47;;;2.72;;
75508;SDS011;64214;47.250;11.332;2023-03-14T00:03:06;3.45;;;2.80;;
75508;SDS011;64214;47.250;11.332;2023-03-14T00:03:17;3.78;;;2.92;;
75508;SDS011;64214;47.250;11.332;2023-03-14T00:03:28;3.97;;;3.00;;
75508;SDS011;64214;47.250;11.332;2023-03-14T00:03:40;3.92;;;3.00;;
75508;SDS011;64214;47.250;11.332;2023-03-14T00:03:51;4.32;;;3.05;;
75508;SDS011;64214;47.250;11.332;2023-03-14T00:04:03;4.60;;;3.20;;
75508;SDS011;64214;47.250;11.332;2023-03-14T00:04:15;5.10;;;3.08;;
75508;SDS011;64214;47.250;11.332;2023-03-14T00:04:27;5.82;;;3.17;;
75508;SDS011;64214;47.250;11.332;2023-03-14T00:04:38;6.20;;;3.25;;
75508;SDS011;64214;47.250;11.332;2023-03-14T00:04:49;6.10;;;2.92;;
75508;SDS011;64214;47.250;11.332;2023-03-14T00:05:04;5.53;;;2.65;;
75508;SDS011;64214;47.250;11.332;2023-03-14T00:05:17;4.47;;;2.78;;
75508;SDS011;64214;47.250;11.332;2023-03-14T00:05:28;4.10;;;2.78;;
75508;SDS011;64214;47.250;11.332;2023-03-14T00:05:39;4.33;;;2.97;;
75508;SDS011;64214;47.250;11.332;2023-03-14T00:05:50;4.22;;;2.80;;
75508;SDS011;64214;47.250;11.332;2023-03-14T00:06:02;4.18;;;2.92;;
75508;SDS011;64214;47.250;11.332;2023-03-14T00:06:14;4.57;;;2.90;;
75508;SDS011;64214;47.250;11.332;2023-03-14T00:06:26;5.05;;;3.13;;
75508;SDS011;64214;47.250;11.332;2023-03-14T00:06:37;5.53;;;3.30;;
75508;SDS011;64214;47.250;11.332;2023-03-14T00:06:48;4.70;;;3.28;;
75508;SDS011;64214;47.250;11.332;2023-03-14T00:07:00;4.70;;;3.15;;
75508;SDS011;64214;47.250;11.332;2023-03-14T00:07:11;4.22;;;3.03;;
75508;SDS011;64214;47.250;11.332;2023-03-14T00:07:23;3.83;;;2.80;;
75508;SDS011;64214;47.250;11.332;2023-03-14T00:07:35;4.45;;;2.70;;
75508;SDS011;64214;47.250;11.332;2023-03-14T00:07:47;5.63;;;2.70;;
75508;SDS011;64214;47.250;11.332;2023-03-14T00:07:59;5.22;;;2.92;;
75508;SDS011;64214;47.250;11.332;2023-03-14T00:08:10;3.63;;;3.10;;
75508;SDS011;64214;47.250;11.332;2023-03-14T00:08:21;4.28;;;3.17;;
75508;SDS011;64214;47.250;11.332;2023-03-14T00:08:34;3.92;;;2.75;;
75508;SDS011;64214;47.250;11.332;2023-03-14T00:08:46;4.03;;;2.58;;
75508;SDS011;64214;47.250;11.332;2023-03-14T00:08:58;3.97;;;2.67;;
75508;SDS011;64214;47.250;11.332;2023-03-14T00:09:09;4.25;;;2.85;;
75508;SDS011;64214;47.250;11.332;2023-03-14T00:09:20;5.15;;;3.03;;
75508;SDS011;64214;47.250;11.332;2023-03-14T00:09:31;5.63;;;3.10;;
75508;SDS011;64214;47.250;11.332;2023-03-14T00:09:42;5.47;;;3.00;;
75508;SDS011;64214;47.250;11.332;2023-03-14T00:09:53;5.00;;;3.00;;
75508;SDS011;64214;47.250;11.332;2023-03-14T00:10:06;5.38;;;2.75;;
75508;SDS011;64214;47.250;11.332;2023-03-14T00:10:19;4.70;;;2.65;;
75508;SDS011;64214;47.250;11.332;2023-03-14T00:10:30;4.03;;;2.60;;
75508;SDS011;64214;47.250;11.332;2023-03-14T00:10:41;4.45;;;2.75;;
75508;SDS011;64214;47.250;11.332;2023-03-14T00:10:52;4.88;;;2.90;;
75508;SDS011;64214;47.250;11.332;2023-03-14T00:11:13;5.30;;;3.10;;
75508;SDS011;64214;47.250;11.332;2023-03-14T00:11:26;4.30;;;2.75;;
75508;SDS011;64214;47.250;11.332;2023-03-14T00:11:38;3.63;;;2.70;;
75508;SDS011;64214;47.250;11.332;2023-03-14T00:11:49;3.90;;;2.85;;
75508;SDS011;64214;47.250;11.332;2023-03-14T00:12:00;4.00;;;2.78;;
75508;SDS011;64214;47.250;11.332;2023-03-14T00:12:13;4.03;;;2.75;;
75508;SDS011;64214;47.250;11.332;2023-03-14T00:12:25;3.87;;;2.70;;
75508;SDS011;64214;47.250;11.332;2023-03-14T00:12:37;4.05;;;2.58;;
75508;SDS011;64214;47.250;11.332;2023-03-14T00:12:49;4.00;;;2.40;;
75508;SDS011;64214;47.250;11.332;2023-03-14T00:13:00;4.00;;;2.22;;
75508;SDS011;64214;47.250;11.332;2023-03-14T00:13:11;3.65;;;2.35;;
75508;SDS011;64214;47.250;11.332;2023-03-14T00:13:22;3.45;;;2.38;;
75508;SDS011;64214;47.250;11.332;2023-03-14T00:13:33;2.90;;;2.30;;
75508;SDS011;64214;47.250;11.332;2023-03-14T00:13:51;2.83;;;2.10;;
75508;SDS011;64214;47.250;11.332;2023-03-14T00:14:02;3.73;;;2.23;;
75508;SDS011;64214;47.250;11.332;2023-03-14T00:14:13;3.53;;;2.20;;
75508;SDS011;64214;47.250;11.332;2023-03-14T00:14:26;3.80;;;2.13;;
75508;SDS011;64214;47.250;11.332;2023-03-14T00:14:37;3.47;;;2.03;;
75508;SDS011;64214;47.250;11.332;2023-03-14T00:14:48;3.53;;;1.92;;
75508;SDS011;64214;47.250;11.332;2023-03-14T00:14:59;2.65;;;1.80;;
75508;SDS011;64214;47.250;11.332;2023-03-14T00:15:14;2.97;;;1.80;;
75508;SDS011;64214;47.250;11.332;2023-03-14T00:15:25;3.03;;;1.80;;
75508;SDS011;64214;47.250;11.332;2023-03-14T00:15:37;3.05;;;1.90;;
75508;SDS011;64214;47.250;11.332;2023-03-14T00:15:48;3.30;;;1.73;;
75508;SDS011;64214;47.250;11.332;2023-03-14T00:16:09;3.95;;;1.80;;
75508;SDS011;64214;47.250;11.332;2023-03-14T00:16:21;3.22;;;1.70;;
75508;SDS011;64214;47.250;11.332;2023-03-14T00:16:32;2.83;;;1.60;;
75508;SDS011;64214;47.250;11.332;2023-03-14T00:16:45;3.05;;;1.67;;
75508;SDS011;64214;47.250;11.332;2023-03-14T00:16:56;2.90;;;1.60;;
75508;SDS011;64214;47.250;11.332;2023-03-14T00:17:08;2.33;;;1.58;;
75508;SDS011;64214;47.250;11.332;2023-03-14T00:17:19;2.17;;;1.45;;
75508;SDS011;64214;47.250;11.332;2023-03-14T00:17:30;2.08;;;1.52;;
75508;SDS011;64214;47.250;11.332;2023-03-14T00:17:42;2.35;;;1.63;;
75508;SDS011;64214;47.250;11.332;2023-03-14T00:17:53;2.05;;;1.58;;
75508;SDS011;64214;47.250;11.332;2023-03-14T00:18:05;1.92;;;1.50;;
75508;SDS011;64214;47.250;11.332;2023-03-14T00:18:16;1.60;;;1.50;;
75508;SDS011;64214;47.250;11.332;2023-03-14T00:18:27;2.30;;;1.60;;
75508;SDS011;64214;47.250;11.332;2023-03-14T00:18:38;2.90;;;1.50;;
75508;SDS011;64214;47.250;11.332;2023-03-14T00:18:50;3.03;;;1.52;;
75508;SDS011;64214;47.250;11.332;2023-03-14T00:19:01;2.88;;;1.77;;
75508;SDS011;64214;47.250;11.332;2023-03-14T00:19:12;2.10;;;1.90;;
75508;SDS011;64214;47.250;11.332;2023-03-14T00:19:23;1.88;;;1.63;;
75508;SDS011;64214;47.250;11.332;2023-03-14T00:19:35;2.00;;;1.63;;
75508;SDS011;64214;47.250;11.332;2023-03-14T00:19:46;2.00;;;1.70;;
75508;SDS011;64214;47.250;11.332;2023-03-14T00:19:57;2.00;;;1.70;;
75508;SDS011;64214;47.250;11.332;2023-03-14T00:20:14;1.80;;;1.50;;
75508;SDS011;64214;47.250;11.332;2023-03-14T00:20:26;2.78;;;1.45;;
75508;SDS011;64214;47.250;11.332;2023-03-14T00:20:37;3.10;;;1.52;;
75508;SDS011;64214;47.250;11.332;2023-03-14T00:20:48;3.03;;;1.67;;
75508;SDS011;64214;47.250;11.332;2023-03-14T00:20:59;1.90;;;1.63;;
75508;SDS011;64214;47.250;11.332;2023-03-14T00:21:11;1.83;;;1.50;;
75508;SDS011;64214;47.250;11.332;2023-03-14T00:21:22;2.80;;;1.50;;
75508;SDS011;64214;47.250;11.332;2023-03-14T00:21:35;2.90;;;1.40;;
75508;SDS011;64214;47.250;11.332;2023-03-14T00:21:46;2.50;;;1.40;;
75508;SDS011;64214;47.250;11.332;2023-03-14T00:21:57;2.15;;;1.40;;
75508;SDS011;64214;47.250;11.332;2023-03-14T00:22:08;2.55;;;1.65;;
75508;SDS011;64214;47.250;11.332;2023-03-14T00:22:20;3.10;;;1.70;;
75508;SDS011;64214;47.250;11.332;2023-03-14T00:22:31;2.80;;;1.60;;
75508;SDS011;64214;47.250;11.332;2023-03-14T00:22:42;2.00;;;1.42;;
75508;SDS011;64214;47.250;11.332;2023-03-14T00:22:54;1.58;;;1.48;;
75508;SDS011;64214;47.250;11.332;2023-03-14T00:23:05;1.98;;;1.50;;
75508;SDS011;64214;47.250;11.332;2023-03-14T00:23:16;2.78;;;1.65;;
75508;SDS011;64214;47.250;11.332;2023-03-14T00:23:28;3.00;;;1.63;;
75508;SDS011;64214;47.250;11.332;2023-03-14T00:23:41;2.88;;;1.75;;
75508;SDS011;64214;47.250;11.332;2023-03-14T00:23:53;2.60;;;1.70;;
75508;SDS011;64214;47.250;11.332;2023-03-14T00:24:04;2.45;;;1.70;;
75508;SDS011;64214;47.250;11.332;2023-03-14T00:24:16;2.50;;;1.60;;
75508;SDS011;64214;47.250;11.332;2023-03-14T00:24:27;2.35;;;1.50;;
75508;SDS011;64214;47.250;11.332;2023-03-14T00:24:38;2.55;;;1.60;;
75508;SDS011;64214;47.250;11.332;2023-03-14T00:24:50;3.08;;;1.60;;
75508;SDS011;64214;47.250;11.332;2023-03-14T00:25:01;2.83;;;1.70;;
75508;SDS011;64214;47.250;11.332;2023-03-14T00:25:12;2.72;;;1.70;;
75508;SDS011;64214;47.250;11.332;2023-03-14T00:25:24;3.10;;;1.60;;
75508;SDS011;64214;47.250;11.332;2023-03-14T00:25:35;2.88;;;1.40;;
75508;SDS011;64214;47.250;11.332;2023-03-14T00:25:46;2.65;;;1.30;;
75508;SDS011;64214;47.250;11.332;2023-03-14T00:26:00;1.98;;;1.42;;
75508;SDS011;64214;47.250;11.332;2023-03-14T00:26:13;2.58;;;1.50;;
75508;SDS011;64214;47.250;11.332;2023-03-14T00:26:26;3.00;;;1.50;;
75508;SDS011;64214;47.250;11.332;2023-03-14T00:26:37;2.53;;;1.60;;
75508;SDS011;64214;47.250;11.332;2023-03-14T00:26:50;1.88;;;1.60;;
75508;SDS011;64214;47.250;11.332;2023-03-14T00:27:01;1.98;;;1.50;;
75508;SDS011;64214;47.250;11.332;2023-03-14T00:27:12;2.17;;;1.40;;
75508;SDS011;64214;47.250;11.332;2023-03-14T00:27:23;2.90;;;1.70;;
75508;SDS011;64214;47.250;11.332;2023-03-14T00:27:34;2.67;;;1.70;;
75508;SDS011;64214;47.250;11.332;2023-03-14T00:27:45;2.55;;;1.77;;
75508;SDS011;64214;47.250;11.332;2023-03-14T00:27:57;2.38;;;1.55;;
75508;SDS011;64214;47.250;11.332;2023-03-14T00:28:08;2.80;;;1.63;;
75508;SDS011;64214;47.250;11.332;2023-03-14T00:28:20;2.55;;;1.52;;
75508;SDS011;64214;47.250;11.332;2023-03-14T00:28:32;3.20;;;1.75;;
75508;SDS011;64214;47.250;11.332;2023-03-14T00:28:43;2.72;;;1.77;;
75508;SDS011;64214;47.250;11.332;2023-03-14T00:28:54;2.80;;;1.80;;
75508;SDS011;64214;47.250;11.332;2023-03-14T00:29:06;2.35;;;1.60;;
75508;SDS011;64214;47.250;11.332;2023-03-14T00:29:17;2.50;;;1.52;;
75508;SDS011;64214;47.250;11.332;2023-03-14T00:29:29;2.40;;;1.40;;
75508;SDS011;64214;47.250;11.332;2023-03-14T00:29:42;1.95;;;1.40;;
75508;SDS011;64214;47.250;11.332;2023-03-14T00:29:53;2.40;;;1.40;;
75508;SDS011;64214;47.250;11.332;2023-03-14T00:30:05;2.85;;;1.40;;
75508;SDS011;64214;47.250;11.332;2023-03-14T00:30:18;2.25;;;1.30;;
75508;SDS011;64214;47.250;11.332;2023-03-14T00:30:30;2.15;;;1.50;;
75508;SDS011;64214;47.250;11.332;2023-03-14T00:30:42;2.88;;;1.52;;
75508;SDS011;64214;47.250;11.332;2023-03-14T00:30:53;2.85;;;1.60;;
75508;SDS011;64214;47.250;11.332;2023-03-14T00:31:08;2.38;;;1.55;;
75508;SDS011;64214;47.250;11.332;2023-03-14T00:31:20;2.50;;;1.55;;
75508;SDS011;64214;47.250;11.332;2023-03-14T00:31:31;2.58;;;1.52;;
75508;SDS011;64214;47.250;11.332;2023-03-14T00:31:43;2.10;;;1.50;;
75508;SDS011;64214;47.250;11.332;2023-03-14T00:31:54;2.58;;;2.15;;
75508;SDS011;64214;47.250;11.332;2023-03-14T00:32:05;3.15;;;2.33;;
75508;SDS011;64214;47.250;11.332;2023-03-14T00:32:16;3.28;;;1.90;;
75508;SDS011;64214;47.250;11.332;2023-03-14T00:32:27;2.75;;;1.90;;
75508;SDS011;64214;47.250;11.332;2023-03-14T00:32:38;2.35;;;1.60;;
75508;SDS011;64214;47.250;11.332;2023-03-14T00:32:49;2.38;;;1.60;;
75508;SDS011;64214;47.250;11.332;2023-03-14T00:33:01;2.40;;;1.50;;
75508;SDS011;64214;47.250;11.332;2023-03-14T00:33:12;2.00;;;1.60;;
75508;SDS011;64214;47.250;11.332;2023-03-14T00:33:25;2.97;;;1.40;;
75508;SDS011;64214;47.250;11.332;2023-03-14T00:33:36;3.03;;;1.42;;
75508;SDS011;64214;47.250;11.332;2023-03-14T00:33:47;3.15;;;1.50;;
75508;SDS011;64214;47.250;11.332;2023-03-14T00:33:59;2.75;;;1.50;;
75508;SDS011;64214;47.250;11.332;2023-03-14T00:34:10;2.67;;;1.50;;
75508;SDS011;64214;47.250;11.332;2023-03-14T00:34:21;2.35;;;1.50;;
75508;SDS011;64214;47.250;11.332;2023-03-14T00:34:32;2.97;;;1.60;;
75508;SDS011;64214;47.250;11.332;2023-03-14T00:34:45;3.17;;;1.77;;
75508;SDS011;64214;47.250;11.332;2023-03-14T00:34:56;3.00;;;1.70;;
75508;SDS011;64214;47.250;11.332;2023-03-14T00:35:07;2.80;;;1.60;;
75508;SDS011;64214;47.250;11.332;2023-03-14T00:35:18;3.00;;;1.60;;
75508;SDS011;64214;47.250;11.332;2023-03-14T00:35:30;2.83;;;1.60;;
75508;SDS011;64214;47.250;11.332;2023-03-14T00:35:41;2.15;;;1.58;;
75508;SDS011;64214;47.250;11.332;2023-03-14T00:35:53;2.42;;;1.50;;
75508;SDS011;64214;47.250;11.332;2023-03-14T00:36:09;2.80;;;1.60;;
75508;SDS011;64214;47.250;11.332;2023-03-14T00:36:22;2.50;;;1.60;;
75508;SDS011;64214;47.250;11.332;2023-03-14T00:36:34;2.10;;;1.50;;
75508;SDS011;64214;47.250;11.332;2023-03-14T00:36:45;2.10;;;1.38;;
75508;SDS011;64214;47.250;11.332;2023-03-14T00:36:57;2.92;;;1.50;;
75508;SDS011;64214;47.250;11.332;2023-03-14T00:37:08;3.75;;;1.60;;
75508;SDS011;64214;47.250;11.332;2023-03-14T00:37:19;3.78;;;1.60;;
75508;SDS011;64214;47.250;11.332;2023-03-14T00:37:31;3.08;;;1.60;;
75508;SDS011;64214;47.250;11.332;2023-03-14T00:37:42;2.22;;;1.60;;
75508;SDS011;64214;47.250;11.332;2023-03-14T00:37:53;2.30;;;1.50;;
75508;SDS011;64214;47.250;11.332;2023-03-14T00:38:04;2.40;;;1.60;;
75508;SDS011;64214;47.250;11.332;2023-03-14T00:38:15;2.08;;;1.60;;
75508;SDS011;64214;47.250;11.332;2023-03-14T00:38:26;2.15;;;1.65;;
75508;SDS011;64214;47.250;11.332;2023-03-14T00:38:38;1.85;;;1.50;;
75508;SDS011;64214;47.250;11.332;2023-03-14T00:38:50;1.70;;;1.50;;
75508;SDS011;64214;47.250;11.332;2023-03-14T00:39:02;1.90;;;1.50;;
75508;SDS011;64214;47.250;11.332;2023-03-14T00:39:15;2.10;;;1.60;;
75508;SDS011;64214;47.250;11.332;2023-03-14T00:39:27;1.92;;;1.52;;
75508;SDS011;64214;47.250;11.332;2023-03-14T00:39:38;2.10;;;1.50;;
75508;SDS011;64214;47.250;11.332;2023-03-14T00:39:50;2.80;;;1.60;;
75508;SDS011;64214;47.250;11.332;2023-03-14T00:40:03;3.20;;;1.70;;
75508;SDS011;64214;47.250;11.332;2023-03-14T00:40:17;2.50;;;1.80;;
75508;SDS011;64214;47.250;11.332;2023-03-14T00:40:28;3.30;;;1.80;;
75508;SDS011;64214;47.250;11.332;2023-03-14T00:40:39;3.30;;;1.77;;
75508;SDS011;64214;47.250;11.332;2023-03-14T00:40:53;2.72;;;1.67;;
75508;SDS011;64214;47.250;11.332;2023-03-14T00:41:05;2.17;;;1.55;;
75508;SDS011;64214;47.250;11.332;2023-03-14T00:41:19;1.95;;;1.55;;
75508;SDS011;64214;47.250;11.332;2023-03-14T00:41:32;1.90;;;1.50;;
75508;SDS011;64214;47.250;11.332;2023-03-14T00:41:44;2.03;;;1.42;;
75508;SDS011;64214;47.250;11.332;2023-03-14T00:41:55;2.53;;;1.48;;
75508;SDS011;64214;47.250;11.332;2023-03-14T00:42:07;2.30;;;1.58;;
75508;SDS011;64214;47.250;11.332;2023-03-14T00:42:18;2.03;;;1.50;;
75508;SDS011;64214;47.250;11.332;2023-03-14T00:42:29;2.05;;;1.52;;
75508;SDS011;64214;47.250;11.332;2023-03-14T00:42:42;2.50;;;1.60;;
75508;SDS011;64214;47.250;11.332;2023-03-14T00:42:53;2.45;;;1.58;;
75508;SDS011;64214;47.250;11.332;2023-03-14T00:43:04;2.28;;;1.48;;
75508;SDS011;64214;47.250;11.332;2023-03-14T00:43:15;1.90;;;1.23;;
75508;SDS011;64214;47.250;11.332;2023-03-14T00:43:27;2.60;;;1.30;;
75508;SDS011;64214;47.250;11.332;2023-03-14T00:43:39;2.55;;;1.48;;
75508;SDS011;64214;47.250;11.332;2023-03-14T00:43:50;2.58;;;1.58;;
75508;SDS011;64214;47.250;11.332;2023-03-14T00:44:02;2.50;;;1.60;;
75508;SDS011;64214;47.250;11.332;2023-03-14T00:44:13;2.22;;;1.60;;
75508;SDS011;64214;47.250;11.332;2023-03-14T00:44:24;2.20;;;1.60;;
75508;SDS011;64214;47.250;11.332;2023-03-14T00:44:35;2.80;;;1.60;;
75508;SDS011;64214;47.250;11.332;2023-03-14T00:44:50;2.92;;;1.63;;
75508;SDS011;64214;47.250;11.332;2023-03-14T00:45:01;2.38;;;1.50;;
75508;SDS011;64214;47.250;11.332;2023-03-14T00:45:13;2.08;;;1.40;;
75508;SDS011;64214;47.250;11.332;2023-03-14T00:45:24;2.28;;;1.40;;
75508;SDS011;64214;47.250;11.332;2023-03-14T00:45:35;2.45;;;1.50;;
75508;SDS011;64214;47.250;11.332;2023-03-14T00:45:46;2.50;;;1.40;;
75508;SDS011;64214;47.250;11.332;2023-03-14T00:45:57;2.50;;;1.40;;
75508;SDS011;64214;47.250;11.332;2023-03-14T00:46:11;2.50;;;1.52;;
75508;SDS011;64214;47.250;11.332;2023-03-14T00:46:23;2.25;;;1.58;;
75508;SDS011;64214;47.250;11.332;2023-03-14T00:46:34;2.00;;;1.40;;
75508;SDS011;64214;47.250;11.332;2023-03-14T00:46:45;1.92;;;1.40;;
75508;SDS011;64214;47.250;11.332;2023-03-14T00:46:56;2.28;;;1.60;;
75508;SDS011;64214;47.250;11.332;2023-03-14T00:47:07;2.58;;;1.70;;
75508;SDS011;64214;47.250;11.332;2023-03-14T00:47:18;2.58;;;1.83;;
75508;SDS011;64214;47.250;11.332;2023-03-14T00:47:30;2.13;;;1.65;;
75508;SDS011;64214;47.250;11.332;2023-03-14T00:47:41;2.85;;;1.75;;
75508;SDS011;64214;47.250;11.332;2023-03-14T00:47:56;3.80;;;1.83;;
75508;SDS011;64214;47.250;11.332;2023-03-14T00:48:09;3.33;;;1.80;;
75508;SDS011;64214;47.250;11.332;2023-03-14T00:48:20;1.90;;;1.63;;
75508;SDS011;64214;47.250;11.332;2023-03-14T00:48:32;1.85;;;1.50;;
75508;SDS011;64214;47.250;11.332;2023-03-14T00:48:45;2.60;;;1.48;;
75508;SDS011;64214;47.250;11.332;2023-03-14T00:48:56;2.58;;;1.40;;
75508;SDS011;64214;47.250;11.332;2023-03-14T00:49:08;3.65;;;1.65;;
75508;SDS011;64214;47.250;11.332;2023-03-14T00:49:19;3.38;;;1.63;;
75508;SDS011;64214;47.250;11.332;2023-03-14T00:49:30;2.85;;;1.65;;
75508;SDS011;64214;47.250;11.332;2023-03-14T00:49:41;2.50;;;1.50;;
75508;SDS011;64214;47.250;11.332;2023-03-14T00:49:54;2.10;;;1.40;;
75508;SDS011;64214;47.250;11.332;2023-03-14T00:50:05;1.73;;;1.40;;
75508;SDS011;64214;47.250;11.332;2023-03-14T00:50:16;1.52;;;1.40;;
75508;SDS011;64214;47.250;11.332;2023-03-14T00:50:30;2.30;;;1.38;;
75508;SDS011;64214;47.250;11.332;2023-03-14T00:50:41;2.50;;;1.42;;
75508;SDS011;64214;47.250;11.332;2023-03-14T00:50:52;2.40;;;1.50;;
75508;SDS011;64214;47.250;11.332;2023-03-14T00:51:04;2.17;;;1.60;;
75508;SDS011;64214;47.250;11.332;2023-03-14T00:51:15;3.47;;;1.67;;
75508;SDS011;64214;47.250;11.332;2023-03-14T00:51:28;3.47;;;1.67;;
75508;SDS011;64214;47.250;11.332;2023-03-14T00:51:40;3.67;;;1.60;;
75508;SDS011;64214;47.250;11.332;2023-03-14T00:51:52;2.92;;;1.52;;
75508;SDS011;64214;47.250;11.332;2023-03-14T00:52:04;3.05;;;1.60;;
75508;SDS011;64214;47.250;11.332;2023-03-14T00:52:15;2.27;;;1.60;;
75508;SDS011;64214;47.250;11.332;2023-03-14T00:52:26;2.38;;;1.60;;
75508;SDS011;64214;47.250;11.332;2023-03-14T00:52:37;2.20;;;1.50;;
75508;SDS011;64214;47.250;11.332;2023-03-14T00:52:50;2.20;;;1.50;;
75508;SDS011;64214;47.250;11.332;2023-03-14T00:53:01;2.78;;;1.50;;
75508;SDS011;64214;47.250;11.332;2023-03-14T00:53:12;2.72;;;1.50;;
75508;SDS011;64214;47.250;11.332;2023-03-14T00:53:23;2.45;;;1.42;;
75508;SDS011;64214;47.250;11.332;2023-03-14T00:53:35;2.53;;;1.40;;
75508;SDS011;64214;47.250;11.332;2023-03-14T00:53:48;2.90;;;1.50;;
75508;SDS011;64214;47.250;11.332;2023-03-14T00:53:59;2.47;;;1.60;;
75508;SDS011;64214;47.250;11.332;2023-03-14T00:54:11;2.30;;;1.60;;
75508;SDS011;64214;47.250;11.332;2023-03-14T00:54:22;2.00;;;1.63;;
75508;SDS011;64214;47.250;11.332;2023-03-14T00:54:33;2.15;;;1.52;;
75508;SDS011;64214;47.250;11.332;2023-03-14T00:54:44;2.50;;;1.50;;
75508;SDS011;64214;47.250;11.332;2023-03-14T00:54:56;2.78;;;1.58;;
75508;SDS011;64214;47.250;11.332;2023-03-14T00:55:07;2.67;;;1.70;;
75508;SDS011;64214;47.250;11.332;2023-03-14T00:55:18;2.33;;;1.63;;
75508;SDS011;64214;47.250;11.332;2023-03-14T00:55:29;2.38;;;1.67;;
75508;SDS011;64214;47.250;11.332;2023-03-14T00:55:41;2.10;;;1.50;;
75508;SDS011;64214;47.250;11.332;2023-03-14T00:55:53;2.20;;;1.40;;
75508;SDS011;64214;47.250;11.332;2023-03-14T00:56:05;2.40;;;1.40;;
75508;SDS011;64214;47.250;11.332;2023-03-14T00:56:18;2.17;;;1.42;;
75508;SDS011;64214;47.250;11.332;2023-03-14T00:56:29;2.05;;;1.70;;
75508;SDS011;64214;47.250;11.332;2023-03-14T00:56:41;2.55;;;1.70;;
75508;SDS011;64214;47.250;11.332;2023-03-14T00:56:52;2.78;;;1.58;;
75508;SDS011;64214;47.250;11.332;2023-03-14T00:57:03;2.45;;;1.42;;
75508;SDS011;64214;47.250;11.332;2023-03-14T00:57:14;2.33;;;1.50;;
75508;SDS011;64214;47.250;11.332;2023-03-14T00:57:26;2.55;;;1.70;;
75508;SDS011;64214;47.250;11.332;2023-03-14T00:57:37;3.05;;;1.80;;
75508;SDS011;64214;47.250;11.332;2023-03-14T00:57:48;3.63;;;1.98;;
75508;SDS011;64214;47.250;11.332;2023-03-14T00:57:59;3.65;;;2.10;;
75508;SDS011;64214;47.250;11.332;2023-03-14T00:58:11;3.60;;;2.17;;
75508;SDS011;64214;47.250;11.332;2023-03-14T00:58:23;3.35;;;2.17;;
75508;SDS011;64214;47.250;11.332;2023-03-14T00:58:34;3.50;;;2.25;;
75508;SDS011;64214;47.250;11.332;2023-03-14T00:58:46;3.35;;;2.20;;
75508;SDS011;64214;47.250;11.332;2023-03-14T00:58:57;3.15;;;2.10;;
75508;SDS011;64214;47.250;11.332;2023-03-14T00:59:08;3.65;;;2.50;;
75508;SDS011;64214;47.250;11.332;2023-03-14T00:59:19;3.80;;;2.53;;
75508;SDS011;64214;47.250;11.332;2023-03-14T00:59:30;3.70;;;2.47;;
75508;SDS011;64214;47.250;11.332;2023-03-14T00:59:42;3.13;;;2.22;;
75508;SDS011;64214;47.250;11.332;2023-03-14T00:59:53;3.75;;;2.38;;
75508;SDS011;64214;47.250;11.332;2023-03-14T01:00:04;4.00;;;2.30;;
75508;SDS011;64214;47.250;11.332;2023-03-14T01:00:18;3.53;;;2.05;;
75508;SDS011;64214;47.250;11.332;2023-03-14T01:00:29;2.95;;;2.08;;
75508;SDS011;64214;47.250;11.332;2023-03-14T01:00:40;3.20;;;2.13;;
75508;SDS011;64214;47.250;11.332;2023-03-14T01:00:52;2.80;;;2.10;;
75508;SDS011;64214;47.250;11.332;2023-03-14T01:01:07;2.80;;;2.22;;
75508;SDS011;64214;47.250;11.332;2023-03-14T01:01:18;2.85;;;2.08;;
75508;SDS011;64214;47.250;11.332;2023-03-14T01:01:29;2.53;;;1.90;;
75508;SDS011;64214;47.250;11.332;2023-03-14T01:01:40;2.05;;;1.80;;
75508;SDS011;64214;47.250;11.332;2023-03-14T01:01:52;2.95;;;1.83;;
75508;SDS011;64214;47.250;11.332;2023-03-14T01:02:03;3.42;;;2.00;;
75508;SDS011;64214;47.250;11.332;2023-03-14T01:02:14;3.75;;;2.10;;
75508;SDS011;64214;47.250;11.332;2023-03-14T01:02:25;2.90;;;2.08;;
75508;SDS011;64214;47.250;11.332;2023-03-14T01:02:36;3.13;;;1.92;;
75508;SDS011;64214;47.250;11.332;2023-03-14T01:02:48;3.58;;;1.90;;
75508;SDS011;64214;47.250;11.332;2023-03-14T01:02:59;3.65;;;1.80;;
75508;SDS011;64214;47.250;11.332;2023-03-14T01:03:11;4.35;;;2.00;;
75508;SDS011;64214;47.250;11.332;2023-03-14T01:03:23;4.55;;;2.20;;
75508;SDS011;64214;47.250;11.332;2023-03-14T01:03:34;4.18;;;2.30;;
75508;SDS011;64214;47.250;11.332;2023-03-14T01:03:46;3.28;;;2.25;;
75508;SDS011;64214;47.250;11.332;2023-03-14T01:04:00;3.10;;;2.10;;
75508;SDS011;64214;47.250;11.332;2023-03-14T01:04:11;2.38;;;1.90;;
75508;SDS011;64214;47.250;11.332;2023-03-14T01:04:22;2.10;;;1.80;;
75508;SDS011;64214;47.250;11.332;2023-03-14T01:04:33;2.60;;;1.80;;
75508;SDS011;64214;47.250;11.332;2023-03-14T01:04:47;2.65;;;1.77;;
75508;SDS011;64214;47.250;11.332;2023-03-14T01:04:59;2.60;;;1.90;;
75508;SDS011;64214;47.250;11.332;2023-03-14T01:05:10;3.00;;;1.88;;
75508;SDS011;64214;47.250;11.332;2023-03-14T01:05:22;3.33;;;1.90;;
75508;SDS011;64214;47.250;11.332;2023-03-14T01:05:33;3.70;;;1.88;;
75508;SDS011;64214;47.250;11.332;2023-03-14T01:05:45;3.20;;;1.83;;
75508;SDS011;64214;47.250;11.332;2023-03-14T01:06:05;3.10;;;1.73;;
75508;SDS011;64214;47.250;11.332;2023-03-14T01:06:22;2.83;;;1.60;;
75508;SDS011;64214;47.250;11.332;2023-03-14T01:06:34;2.55;;;1.65;;
75508;SDS011;64214;47.250;11.332;2023-03-14T01:06:45;2.75;;;1.73;;
75508;SDS011;64214;47.250;11.332;2023-03-14T01:06:57;2.00;;;1.67;;
75508;SDS011;64214;47.250;11.332;2023-03-14T01:07:08;2.25;;;1.58;;
75508;SDS011;64214;47.250;11.332;2023-03-14T01:07:19;2.70;;;1.70;;
75508;SDS011;64214;47.250;11.332;2023-03-14T01:07:30;2.90;;;1.70;;
75508;SDS011;64214;47.250;11.332;2023-03-14T01:07:42;2.15;;;1.52;;
75508;SDS011;64214;47.250;11.332;2023-03-14T01:07:53;2.17;;;1.50;;
75508;SDS011;64214;47.250;11.332;2023-03-14T01:08:05;2.28;;;1.65;;
75508;SDS011;64214;47.250;11.332;2023-03-14T01:08:18;2.90;;;1.90;;
75508;SDS011;64214;47.250;11.332;2023-03-14T01:08:29;3.00;;;1.80;;
75508;SDS011;64214;47.250;11.332;2023-03-14T01:08:40;2.88;;;1.70;;
75508;SDS011;64214;47.250;11.332;2023-03-14T01:08:52;3.00;;;1.52;;
75508;SDS011;64214;47.250;11.332;2023-03-14T01:09:03;2.70;;;1.60;;
75508;SDS011;64214;47.250;11.332;2023-03-14T01:09:15;2.55;;;1.60;;
75508;SDS011;64214;47.250;11.332;2023-03-14T01:09:28;2.53;;;1.60;;
75508;SDS011;64214;47.250;11.332;2023-03-14T01:09:39;2.70;;;1.67;;
75508;SDS011;64214;47.250;11.332;2023-03-14T01:09:53;2.53;;;1.75;;